createdAt,value
2023-02-04T00:01:02.840Z,1.00
2023-02-04T00:03:29.667Z,1.00
2023-02-04T00:05:56.563Z,1.00
2023-02-04T00:08:23.807Z,1.00
2023-02-04T00:10:50.663Z,1.00
2023-02-04T00:13:17.507Z,0.90
2023-02-04T00:15:44.343Z,1.00
2023-02-04T00:18:11.319Z,0.90
2023-02-04T00:20:38.191Z,0.90
2023-02-04T00:23:05.133Z,0.80
2023-02-04T00:25:32.038Z,0.80
2023-02-04T00:27:58.984Z,0.80
2023-02-04T00:30:26.775Z,0.80
2023-02-04T00:32:54.988Z,0.90
2023-02-04T00:35:23.293Z,0.90
2023-02-04T00:37:51.104Z,0.90
2023-02-04T00:40:18.354Z,0.80
2023-02-04T00:42:45.211Z,0.90
2023-02-04T00:45:13.424Z,0.90
2023-02-04T00:47:40.363Z,0.90
2023-02-04T00:50:07.796Z,0.80
2023-02-04T00:52:34.674Z,0.90
2023-02-04T00:55:01.612Z,0.90
2023-02-04T00:57:28.481Z,1.00
2023-02-04T00:59:55.319Z,0.90
2023-02-04T01:02:22.282Z,1.00
2023-02-04T01:04:49.112Z,1.00
2023-02-04T01:07:16.012Z,1.00
2023-02-04T01:09:42.824Z,1.00
2023-02-04T01:12:09.762Z,1.10
2023-02-04T01:14:36.598Z,1.10
2023-02-04T01:17:03.506Z,1.10
2023-02-04T01:19:30.383Z,1.10
2023-02-04T01:21:57.201Z,1.10
2023-02-04T01:24:24.121Z,1.10
2023-02-04T01:26:50.984Z,1.20
2023-02-04T01:29:17.826Z,1.20
2023-02-04T01:31:44.881Z,1.20
2023-02-04T01:34:11.711Z,1.20
2023-02-04T01:36:38.530Z,1.30
2023-02-04T01:39:05.314Z,1.30
2023-02-04T01:41:32.279Z,1.30
2023-02-04T01:43:59.613Z,1.20
2023-02-04T01:46:26.717Z,1.20
2023-02-04T01:48:54.182Z,1.20
2023-02-04T01:51:28.402Z,1.10
2023-02-04T01:53:56.149Z,1.10
2023-02-04T01:56:28.650Z,1.10
2023-02-04T01:58:57.978Z,1.00
2023-02-04T02:01:54.425Z,1.00
2023-02-04T02:04:33.175Z,1.00
2023-02-04T02:07:06.385Z,1.00
2023-02-04T02:09:34.785Z,1.00
2023-02-04T02:12:03.899Z,1.00
2023-02-04T02:14:30.753Z,1.00
2023-02-04T02:16:58.123Z,0.90
2023-02-04T02:19:37.487Z,1.00
2023-02-04T02:22:36.714Z,1.00
2023-02-04T02:25:12.947Z,0.90
2023-02-04T02:27:40.552Z,0.90
2023-02-04T02:30:10.728Z,0.90
2023-02-04T02:32:39.133Z,0.90
2023-02-04T02:35:07.185Z,0.90
2023-02-04T02:37:34.162Z,1.00
2023-02-04T02:40:01.234Z,1.00
2023-02-04T02:42:28.510Z,1.00
2023-02-04T02:44:55.432Z,1.10
2023-02-04T02:47:23.744Z,1.10
2023-02-04T02:49:54.610Z,1.00
2023-02-04T02:52:22.983Z,1.00
2023-02-04T02:54:50.208Z,1.00
2023-02-04T02:57:21.338Z,1.00
2023-02-04T02:59:48.844Z,1.00
2023-02-04T03:02:23.599Z,1.00
2023-02-04T03:04:58.495Z,1.00
2023-02-04T03:07:25.884Z,1.00
2023-02-04T03:09:54.365Z,1.00
2023-02-04T03:12:21.414Z,1.00
2023-02-04T03:14:48.360Z,1.00
2023-02-04T03:17:15.674Z,1.00
2023-02-04T03:19:43.028Z,1.10
2023-02-04T03:22:10.156Z,1.00
2023-02-04T03:24:37.658Z,1.00
2023-02-04T03:27:04.735Z,1.00
2023-02-04T03:29:31.613Z,1.00
2023-02-04T03:32:00.063Z,1.00
2023-02-04T03:34:27.218Z,1.00
2023-02-04T03:36:54.248Z,0.90
2023-02-04T03:39:21.205Z,0.90
2023-02-04T03:41:48.044Z,0.80
2023-02-04T03:44:14.918Z,0.80
2023-02-04T03:46:41.766Z,0.80
2023-02-04T03:49:08.634Z,0.60
2023-02-04T03:51:35.541Z,0.50
2023-02-04T03:54:02.406Z,0.50
2023-02-04T03:56:29.225Z,0.50
2023-02-04T03:58:57.259Z,0.50
2023-02-04T04:01:24.183Z,0.40
2023-02-04T04:03:51.038Z,0.30
2023-02-04T04:06:17.897Z,0.30
2023-02-04T04:08:44.728Z,0.30
2023-02-04T04:11:11.808Z,0.30
2023-02-04T04:13:38.697Z,0.30
2023-02-04T04:16:06.142Z,0.40
2023-02-04T04:18:34.063Z,0.40
2023-02-04T04:21:01.192Z,0.30
2023-02-04T04:23:28.045Z,0.40
2023-02-04T04:25:54.907Z,0.40
2023-02-04T04:28:21.779Z,0.40
2023-02-04T04:30:48.622Z,0.40
2023-02-04T04:33:15.465Z,0.50
2023-02-04T04:35:42.302Z,0.50
2023-02-04T04:38:09.093Z,0.60
2023-02-04T04:40:35.916Z,0.60
2023-02-04T04:43:03.596Z,0.60
2023-02-04T04:45:30.440Z,0.60
2023-02-04T04:47:57.471Z,0.70
2023-02-04T04:50:24.331Z,0.70
2023-02-04T04:52:51.212Z,0.70
2023-02-04T04:55:18.117Z,0.70
2023-02-04T04:57:45.405Z,0.60
2023-02-04T05:00:17.567Z,0.60
2023-02-04T05:02:44.564Z,0.60
2023-02-04T05:05:13.284Z,0.50
2023-02-04T05:07:40.206Z,0.50
2023-02-04T05:10:07.674Z,0.50
2023-02-04T05:12:34.489Z,0.40
2023-02-04T05:15:01.329Z,0.40
2023-02-04T05:17:28.776Z,0.30
2023-02-04T05:19:55.641Z,0.40
2023-02-04T05:22:22.532Z,0.40
2023-02-04T05:24:49.360Z,0.40
2023-02-04T05:27:16.262Z,0.40
2023-02-04T05:29:43.187Z,0.40
2023-02-04T05:32:10.082Z,0.50
2023-02-04T05:34:37.703Z,0.40
2023-02-04T05:37:05.531Z,0.30
2023-02-04T05:39:32.326Z,0.40
2023-02-04T05:41:59.162Z,0.40
2023-02-04T05:44:27.486Z,0.40
2023-02-04T05:46:54.402Z,0.40
2023-02-04T05:49:21.284Z,0.40
2023-02-04T05:51:48.130Z,0.40
2023-02-04T05:54:19.364Z,0.40
2023-02-04T05:56:47.929Z,0.40
2023-02-04T05:59:15.055Z,0.30
2023-02-04T06:01:41.943Z,0.30
2023-02-04T06:04:08.764Z,0.20
2023-02-04T06:06:35.992Z,0.30
2023-02-04T06:09:03.861Z,0.30
2023-02-04T06:11:30.679Z,0.30
2023-02-04T06:13:57.652Z,0.30
2023-02-04T06:16:24.594Z,0.30
2023-02-04T06:18:51.507Z,0.30
2023-02-04T06:21:18.518Z,0.20
2023-02-04T06:23:45.559Z,0.10
2023-02-04T06:26:12.445Z,0.10
2023-02-04T06:28:39.293Z,0.00
2023-02-04T06:31:06.316Z,0.00
2023-02-04T06:33:33.150Z,0.00
2023-02-04T06:36:00.019Z,0.00
2023-02-04T06:38:26.810Z,-0.10
2023-02-04T06:40:53.839Z,-0.10
2023-02-04T06:43:22.425Z,-0.10
2023-02-04T06:45:51.014Z,-0.20
2023-02-04T06:48:19.225Z,-0.10
2023-02-04T06:50:46.120Z,-0.10
2023-02-04T06:53:13.014Z,-0.10
2023-02-04T06:55:39.891Z,-0.10
2023-02-04T06:58:06.792Z,0.10
2023-02-04T07:00:34.199Z,0.10
2023-02-04T07:03:01.406Z,0.10
2023-02-04T07:05:28.374Z,0.20
2023-02-04T07:07:55.260Z,0.30
2023-02-04T07:10:22.106Z,0.30
2023-02-04T07:12:49.112Z,0.20
2023-02-04T07:15:18.796Z,0.30
2023-02-04T07:17:45.671Z,0.30
2023-02-04T07:20:12.826Z,0.20
2023-02-04T07:22:39.787Z,0.10
2023-02-04T07:25:07.125Z,0.20
2023-02-04T07:27:34.020Z,0.20
2023-02-04T07:30:00.822Z,0.30
2023-02-04T07:32:32.694Z,0.30
2023-02-04T07:35:02.607Z,0.30
2023-02-04T07:37:29.490Z,0.30
2023-02-04T07:39:56.361Z,0.30
2023-02-04T07:42:23.237Z,0.20
2023-02-04T07:44:50.034Z,0.20
2023-02-04T07:47:16.879Z,0.20
2023-02-04T07:49:43.686Z,0.10
2023-02-04T07:52:10.591Z,0.10
2023-02-04T07:54:37.391Z,0.20
2023-02-04T07:57:04.224Z,0.20
2023-02-04T07:59:31.036Z,0.40
2023-02-04T08:01:57.977Z,0.60
2023-02-04T08:04:24.835Z,0.80
2023-02-04T08:06:51.658Z,0.90
2023-02-04T08:09:18.474Z,1.00
2023-02-04T08:11:45.297Z,1.10
2023-02-04T08:14:12.398Z,1.10
2023-02-04T08:16:39.370Z,1.20
2023-02-04T08:19:06.254Z,1.40
2023-02-04T08:21:33.214Z,1.40
2023-02-04T08:24:00.092Z,1.50
2023-02-04T08:26:26.935Z,1.60
2023-02-04T08:28:53.770Z,1.50
2023-02-04T08:31:20.812Z,1.50
2023-02-04T08:33:47.850Z,1.70
2023-02-04T08:36:14.642Z,1.80
2023-02-04T08:38:41.515Z,1.80
2023-02-04T08:41:08.572Z,1.80
2023-02-04T08:43:36.843Z,1.90
2023-02-04T08:46:03.998Z,1.90
2023-02-04T08:48:30.858Z,1.80
2023-02-04T08:50:57.710Z,1.90
2023-02-04T08:53:24.656Z,1.80
2023-02-04T08:55:51.539Z,1.60
2023-02-04T08:58:18.373Z,1.50
2023-02-04T09:00:45.282Z,1.50
2023-02-04T09:03:12.148Z,1.40
2023-02-04T09:05:39.007Z,1.30
2023-02-04T09:08:06.070Z,1.30
2023-02-04T09:10:33.155Z,1.40
2023-02-04T09:13:00.186Z,1.70
2023-02-04T09:15:27.169Z,1.90
2023-02-04T09:17:55.861Z,2.10
2023-02-04T09:20:22.739Z,2.20
2023-02-04T09:22:50.308Z,2.10
2023-02-04T09:25:17.281Z,2.00
2023-02-04T09:27:44.203Z,1.80
2023-02-04T09:30:12.037Z,1.70
2023-02-04T09:32:38.916Z,1.80
2023-02-04T09:35:06.032Z,1.80
2023-02-04T09:37:33.186Z,2.20
2023-02-04T09:40:00.052Z,2.00
2023-02-04T09:42:30.226Z,2.40
2023-02-04T09:44:59.549Z,2.80
2023-02-04T09:47:27.483Z,2.90
2023-02-04T09:49:54.655Z,2.80
2023-02-04T09:52:24.508Z,2.90
2023-02-04T09:54:51.532Z,3.00
2023-02-04T09:57:20.766Z,2.90
2023-02-04T09:59:47.753Z,2.80
2023-02-04T10:02:27.118Z,2.50
2023-02-04T10:04:58.033Z,2.40
2023-02-04T10:07:27.489Z,2.10
2023-02-04T10:09:55.424Z,2.00
2023-02-04T10:12:23.007Z,1.80
2023-02-04T10:14:50.288Z,1.70
2023-02-04T10:17:22.496Z,1.70
2023-02-04T10:19:50.339Z,1.70
2023-02-04T10:22:22.869Z,1.70
2023-02-04T10:24:49.823Z,2.10
2023-02-04T10:27:16.751Z,2.40
2023-02-04T10:29:56.925Z,2.40
2023-02-04T10:32:33.436Z,2.50
2023-02-04T10:35:04.506Z,2.20
2023-02-04T10:37:32.239Z,2.20
2023-02-04T10:39:59.272Z,2.20
2023-02-04T10:42:31.436Z,2.10
2023-02-04T10:44:59.976Z,2.20
2023-02-04T10:47:31.114Z,2.20
2023-02-04T10:50:07.273Z,2.10
2023-02-04T10:52:39.609Z,2.20
2023-02-04T10:55:15.008Z,2.30
2023-02-04T10:57:45.767Z,2.30
2023-02-04T11:00:26.292Z,2.60
2023-02-04T11:03:04.056Z,2.50
2023-02-04T11:05:36.585Z,2.60
2023-02-04T11:08:26.502Z,2.50
2023-02-04T11:11:00.900Z,2.40
2023-02-04T11:13:45.088Z,2.30
2023-02-04T11:16:29.000Z,2.40
2023-02-04T11:19:00.994Z,2.20
2023-02-04T11:21:33.759Z,2.00
2023-02-04T11:24:33.716Z,1.90
2023-02-04T11:27:40.429Z,2.00
2023-02-04T11:30:22.190Z,2.10
2023-02-04T11:33:05.309Z,2.00
2023-02-04T11:35:33.089Z,2.00
2023-02-04T11:38:00.232Z,1.90
2023-02-04T11:40:29.178Z,2.00
2023-02-04T11:43:10.226Z,1.90
2023-02-04T11:45:38.874Z,1.80
2023-02-04T11:48:21.638Z,1.80
2023-02-04T11:51:02.606Z,2.10
2023-02-04T11:53:32.114Z,2.00
2023-02-04T11:56:00.581Z,2.20
2023-02-04T11:58:31.126Z,2.10
2023-02-04T12:00:58.558Z,2.10
2023-02-04T12:03:31.533Z,2.20
2023-02-04T12:05:59.208Z,2.20
2023-02-04T12:08:36.864Z,2.10
2023-02-04T12:11:32.932Z,1.90
2023-02-04T12:14:09.554Z,2.00
2023-02-04T12:16:46.595Z,1.90
2023-02-04T12:19:14.525Z,1.70
2023-02-04T12:21:45.112Z,1.70
2023-02-04T12:24:11.973Z,1.90
2023-02-04T12:26:38.877Z,2.10
2023-02-04T12:29:05.786Z,2.30
2023-02-04T12:31:33.707Z,2.30
2023-02-04T12:34:00.931Z,2.20
2023-02-04T12:36:29.852Z,2.20
2023-02-04T12:39:00.569Z,2.00
2023-02-04T12:41:28.399Z,1.80
2023-02-04T12:43:55.730Z,1.60
2023-02-04T12:46:23.367Z,1.70
2023-02-04T12:48:50.265Z,1.50
2023-02-04T12:51:17.111Z,1.30
2023-02-04T12:53:43.965Z,1.20
2023-02-04T12:56:10.855Z,1.20
2023-02-04T12:58:37.717Z,1.20
2023-02-04T13:01:04.830Z,1.10
2023-02-04T13:03:32.580Z,1.20
2023-02-04T13:05:59.645Z,1.20
2023-02-04T13:08:26.494Z,1.10
2023-02-04T13:10:53.628Z,1.20
2023-02-04T13:13:22.309Z,1.20
2023-02-04T13:15:49.388Z,1.20
2023-02-04T13:18:17.513Z,1.10
2023-02-04T13:20:46.029Z,1.10
2023-02-04T13:23:13.994Z,1.10
2023-02-04T13:25:40.939Z,0.90
2023-02-04T13:28:07.991Z,0.70
2023-02-04T13:30:35.027Z,0.70
2023-02-04T13:33:02.262Z,0.80
2023-02-04T13:35:29.097Z,0.80
2023-02-04T13:37:56.635Z,0.80
2023-02-04T13:40:23.528Z,0.80
2023-02-04T13:42:50.551Z,0.80
2023-02-04T13:45:19.073Z,0.90
2023-02-04T13:47:47.999Z,0.70
2023-02-04T13:50:19.066Z,0.80
2023-02-04T13:52:46.139Z,0.80
2023-02-04T13:55:13.098Z,0.80
2023-02-04T13:57:39.943Z,0.80
2023-02-04T14:00:08.493Z,0.80
2023-02-04T14:02:35.751Z,1.00
2023-02-04T14:05:02.731Z,1.20
2023-02-04T14:07:30.597Z,1.30
2023-02-04T14:09:57.634Z,1.30
2023-02-04T14:12:24.638Z,1.30
2023-02-04T14:14:51.605Z,1.20
2023-02-04T14:17:18.561Z,1.20
2023-02-04T14:19:45.532Z,1.10
2023-02-04T14:22:13.337Z,1.20
2023-02-04T14:24:42.711Z,1.20
2023-02-04T14:27:11.090Z,1.10
2023-02-04T14:29:38.052Z,0.90
2023-02-04T14:32:05.252Z,0.80
2023-02-04T14:34:32.307Z,0.80
2023-02-04T14:36:59.363Z,0.70
2023-02-04T14:39:26.264Z,0.70
2023-02-04T14:41:53.304Z,0.60
2023-02-04T14:44:21.002Z,0.50
2023-02-04T14:46:49.088Z,0.60
2023-02-04T14:49:18.816Z,0.60
2023-02-04T14:51:45.968Z,0.70
2023-02-04T14:54:13.693Z,0.70
2023-02-04T14:56:40.635Z,0.60
2023-02-04T14:59:07.545Z,0.60
2023-02-04T15:01:34.621Z,0.50
2023-02-04T15:04:01.694Z,0.40
2023-02-04T15:06:28.655Z,0.30
2023-02-04T15:08:57.218Z,0.40
2023-02-04T15:11:24.069Z,0.30
2023-02-04T15:13:50.886Z,0.40
2023-02-04T15:16:17.733Z,0.30
2023-02-04T15:18:44.893Z,0.20
2023-02-04T15:21:13.114Z,0.10
2023-02-04T15:23:40.181Z,0.10
2023-02-04T15:26:07.135Z,0.10
2023-02-04T15:28:33.982Z,0.10
2023-02-04T15:31:02.042Z,0.10
2023-02-04T15:33:29.034Z,0.20
2023-02-04T15:35:55.962Z,0.10
2023-02-04T15:38:23.129Z,0.20
2023-02-04T15:40:50.124Z,0.10
2023-02-04T15:43:17.131Z,0.10
2023-02-04T15:45:44.135Z,0.10
2023-02-04T15:48:11.565Z,0.20
2023-02-04T15:50:39.914Z,0.20
2023-02-04T15:53:06.900Z,0.30
2023-02-04T15:55:34.884Z,0.20
2023-02-04T15:58:06.792Z,0.30
2023-02-04T16:00:35.149Z,0.20
2023-02-04T16:03:02.215Z,0.20
2023-02-04T16:05:29.368Z,0.20
2023-02-04T16:07:56.350Z,0.10
2023-02-04T16:10:25.522Z,0.10
2023-02-04T16:12:57.254Z,0.20
2023-02-04T16:15:24.932Z,0.30
2023-02-04T16:17:54.842Z,0.20
2023-02-04T16:20:21.889Z,0.30
2023-02-04T16:22:49.095Z,0.40
2023-02-04T16:25:16.502Z,0.30
2023-02-04T16:27:43.536Z,0.30
2023-02-04T16:30:12.800Z,0.30
2023-02-04T16:32:39.948Z,0.20
2023-02-04T16:35:07.296Z,0.20
2023-02-04T16:37:35.150Z,0.10
2023-02-04T16:40:03.871Z,0.20
2023-02-04T16:42:31.501Z,0.10
2023-02-04T16:45:00.472Z,0.10
2023-02-04T16:47:27.476Z,0.10
2023-02-04T16:49:59.168Z,0.00
2023-02-04T16:52:26.626Z,0.00
2023-02-04T16:54:54.090Z,0.00
2023-02-04T16:57:21.035Z,-0.10
2023-02-04T16:59:48.011Z,-0.10
2023-02-04T17:02:15.886Z,-0.10
2023-02-04T17:04:42.693Z,0.00
2023-02-04T17:07:09.773Z,0.00
2023-02-04T17:09:37.662Z,0.00
2023-02-04T17:12:05.021Z,0.00
2023-02-04T17:14:31.887Z,0.10
2023-02-04T17:16:58.705Z,0.20
2023-02-04T17:19:25.670Z,0.20
2023-02-04T17:21:52.526Z,0.30
2023-02-04T17:24:19.709Z,0.40
2023-02-04T17:26:46.766Z,0.40
2023-02-04T17:29:21.884Z,0.40
2023-02-04T17:31:49.482Z,0.40
2023-02-04T17:34:16.321Z,0.40
2023-02-04T17:36:43.168Z,0.30
2023-02-04T17:39:10.268Z,0.30
2023-02-04T17:41:37.252Z,0.40
2023-02-04T17:44:04.530Z,0.40
2023-02-04T17:46:31.630Z,0.40
2023-02-04T17:48:59.255Z,0.20
2023-02-04T17:51:26.647Z,0.30
2023-02-04T17:53:53.576Z,0.30
2023-02-04T17:56:21.539Z,0.30
2023-02-04T17:58:49.437Z,0.30
2023-02-04T18:01:21.600Z,0.40
2023-02-04T18:03:48.965Z,0.40
2023-02-04T18:06:23.445Z,0.40
2023-02-04T18:08:51.850Z,0.50
2023-02-04T18:11:24.035Z,0.40
2023-02-04T18:13:51.783Z,0.40
2023-02-04T18:16:27.040Z,0.40
2023-02-04T18:19:20.815Z,0.30
2023-02-04T18:21:53.574Z,0.30
2023-02-04T18:24:36.181Z,0.30
2023-02-04T18:27:24.392Z,0.40
2023-02-04T18:29:56.453Z,0.50
2023-02-04T18:32:40.825Z,0.40
2023-02-04T18:35:23.797Z,0.40
2023-02-04T18:37:54.261Z,0.30
2023-02-04T18:40:28.161Z,0.40
2023-02-04T18:43:09.844Z,0.40
2023-02-04T18:45:37.493Z,0.40
2023-02-04T18:48:20.848Z,0.30
2023-02-04T18:50:54.176Z,0.30
2023-02-04T18:53:34.316Z,0.20
2023-02-04T18:56:13.557Z,0.10
2023-02-04T18:58:49.140Z,0.20
2023-02-04T19:01:29.673Z,0.20
2023-02-04T19:04:04.454Z,0.10
2023-02-04T19:06:53.743Z,0.20
2023-02-04T19:09:31.177Z,0.20
2023-02-04T19:12:13.341Z,0.30
2023-02-04T19:14:44.551Z,0.10
2023-02-04T19:17:15.166Z,0.20
2023-02-04T19:20:00.435Z,0.20
2023-02-04T19:22:46.861Z,0.20
2023-02-04T19:25:36.383Z,0.20
2023-02-04T19:28:27.307Z,0.20
2023-02-04T19:31:03.320Z,0.10
2023-02-04T19:33:42.559Z,0.10
2023-02-04T19:36:36.856Z,0.00
2023-02-04T19:39:30.795Z,0.00
2023-02-04T19:41:58.239Z,0.00
2023-02-04T19:44:46.661Z,0.00
2023-02-04T19:47:45.983Z,0.10
2023-02-04T19:50:19.618Z,0.10
2023-02-04T19:53:01.114Z,0.10
2023-02-04T19:55:41.721Z,0.10
2023-02-04T19:58:24.116Z,0.10
2023-02-04T20:01:08.503Z,0.00
2023-02-04T20:03:46.152Z,0.00
2023-02-04T20:06:33.709Z,-0.10
2023-02-04T20:09:25.163Z,-0.10
2023-02-04T20:12:11.730Z,-0.20
2023-02-04T20:14:57.093Z,-0.20
2023-02-04T20:17:35.415Z,-0.30
2023-02-04T20:20:29.411Z,-0.20
2023-02-04T20:23:02.099Z,-0.30
2023-02-04T20:25:48.402Z,-0.20
2023-02-04T20:28:41.082Z,-0.40
2023-02-04T20:31:25.261Z,-0.50
2023-02-04T20:33:56.767Z,-0.60
2023-02-04T20:36:26.755Z,-0.60
2023-02-04T20:39:32.552Z,-0.60
2023-02-04T20:42:42.617Z,-0.70
2023-02-04T20:45:40.411Z,-0.80
2023-02-04T20:48:16.020Z,-0.90
2023-02-04T20:50:52.160Z,-0.90
2023-02-04T20:53:31.091Z,-0.90
2023-02-04T20:56:05.337Z,-0.90
2023-02-04T20:58:41.426Z,-0.90
2023-02-04T21:01:33.969Z,-0.90
2023-02-04T21:04:34.454Z,-1.00
2023-02-04T21:07:23.186Z,-1.10
2023-02-04T21:09:51.828Z,-1.10
2023-02-04T21:12:19.345Z,-1.10
2023-02-04T21:14:46.442Z,-1.00
2023-02-04T21:17:13.498Z,-1.00
2023-02-04T21:19:40.436Z,-0.90
2023-02-04T21:22:07.359Z,-0.90
2023-02-04T21:24:34.364Z,-0.90
2023-02-04T21:27:01.579Z,-0.80
2023-02-04T21:29:28.757Z,-0.80
2023-02-04T21:31:55.694Z,-0.80
2023-02-04T21:34:23.250Z,-0.80
2023-02-04T21:36:50.607Z,-0.80
2023-02-04T21:39:17.591Z,-0.90
2023-02-04T21:41:44.606Z,-0.90
2023-02-04T21:44:11.610Z,-0.90
2023-02-04T21:46:38.670Z,-1.00
2023-02-04T21:49:05.649Z,-1.00
2023-02-04T21:51:40.347Z,-1.00
2023-02-04T21:54:07.206Z,-1.10
2023-02-04T21:56:34.268Z,-1.20
2023-02-04T21:59:01.366Z,-1.30
2023-02-04T22:01:28.331Z,-1.50
2023-02-04T22:03:55.227Z,-1.70
2023-02-04T22:06:22.234Z,-1.80
2023-02-04T22:08:49.111Z,-2.00
2023-02-04T22:11:15.967Z,-2.10
2023-02-04T22:14:01.342Z,-2.40
2023-02-04T22:16:28.238Z,-2.50
2023-02-04T22:18:55.516Z,-2.60
2023-02-04T22:21:23.593Z,-2.90
2023-02-04T22:23:50.614Z,-3.00
2023-02-04T22:26:17.502Z,-3.10
2023-02-04T22:28:44.364Z,-3.20
2023-02-04T22:31:12.499Z,-3.30
2023-02-04T22:33:39.499Z,-3.30
2023-02-04T22:36:06.953Z,-3.40
2023-02-04T22:38:33.987Z,-3.60
2023-02-04T22:41:01.024Z,-3.70
2023-02-04T22:43:27.991Z,-3.70
2023-02-04T22:45:54.843Z,-3.90
2023-02-04T22:48:21.704Z,-3.90
2023-02-04T22:50:49.276Z,-4.00
2023-02-04T22:53:16.177Z,-4.10
2023-02-04T22:55:43.282Z,-4.00
2023-02-04T22:58:10.193Z,-4.10
2023-02-04T23:00:45.445Z,-4.20
2023-02-04T23:03:12.463Z,-4.20
2023-02-04T23:05:39.434Z,-4.30
2023-02-04T23:08:13.629Z,-4.30
2023-02-04T23:10:41.349Z,-4.40
2023-02-04T23:13:09.419Z,-4.30
2023-02-04T23:15:36.464Z,-4.40
2023-02-04T23:18:05.373Z,-4.40
2023-02-04T23:20:33.619Z,-4.50
2023-02-04T23:23:00.656Z,-4.40
2023-02-04T23:25:28.950Z,-4.40
2023-02-04T23:27:56.015Z,-4.30
2023-02-04T23:30:24.449Z,-4.10
2023-02-04T23:32:51.744Z,-4.10
2023-02-04T23:35:18.715Z,-4.00
2023-02-04T23:37:45.899Z,-3.90
2023-02-04T23:40:13.816Z,-3.80
2023-02-04T23:42:40.749Z,-3.70
2023-02-04T23:45:08.225Z,-3.60
2023-02-04T23:47:35.111Z,-3.50
2023-02-04T23:50:02.758Z,-3.30
2023-02-04T23:52:29.998Z,-3.30
2023-02-04T23:54:57.170Z,-3.20
2023-02-04T23:57:24.328Z,-3.10
2023-02-04T23:59:51.214Z,-3.00
